IBE79L LEBL-GCLA
Flight info
| Callsign | IBE79L |
|---|---|
| Flight time | N/A |
| Altitude | 33000 |
| Route | LOTOS DCT TORDU DCT DIKUT DCT SOPET DCT VLC DCT SERRA DCT ASTRO DCT POBOS DCT XEBAR DCT YES DCT BLN DCT KUKAL DCT ALCOL DCT VULPE DCT AMOTA DCT SVL DCT PIMUR DCT ONUBA DCT NAPES DCT OSLEP DCT MINTA DCT BEXAL UN866 KONBA |
| Aircraft | A321/M-SDE3FGHIRWY/LB1 |
Departure
| Time | 2026-05-07 09:56 |
|---|---|
| Airport | Josep Tarradellas Barcelona-El Prat Airport (LEBL) |
Arrival
| Time | N/A |
|---|---|
| Airport | La Palma Airport (GCLA) |
| Time | Latitude | Longitude | Altitude | Speed | Heading |
|---|---|---|---|---|---|
| 2026-05-07 09:41 | 41.29079 | 2.07740 | 19 ft | 0 kts | 155° |
| 2026-05-07 09:46 | 41.29089 | 2.07735 | 19 ft | 4 kts | 155° |
| 2026-05-07 09:47 | 41.29111 | 2.07722 | 21 ft | 1 kts | 155° |
| 2026-05-07 09:47 | 41.29111 | 2.07721 | 21 ft | 0 kts | 155° |
| 2026-05-07 09:48 | 41.29127 | 2.07714 | 20 ft | 3 kts | 169° |
| 2026-05-07 09:48 | 41.29145 | 2.07714 | 20 ft | 3 kts | 221° |
| 2026-05-07 09:49 | 41.29153 | 2.07728 | 19 ft | 0 kts | 255° |
| 2026-05-07 09:50 | 41.29153 | 2.07727 | 19 ft | 0 kts | 255° |
| 2026-05-07 09:50 | 41.29149 | 2.07708 | 19 ft | 8 kts | 254° |
| 2026-05-07 09:51 | 41.29181 | 2.07652 | 19 ft | 8 kts | 330° |
| 2026-05-07 09:51 | 41.29225 | 2.07624 | 18 ft | 6 kts | 334° |
| 2026-05-07 09:51 | 41.29261 | 2.07601 | 18 ft | 6 kts | 334° |
| 2026-05-07 09:51 | 41.29297 | 2.07578 | 17 ft | 6 kts | 334° |
| 2026-05-07 09:52 | 41.29335 | 2.07555 | 16 ft | 6 kts | 335° |
| 2026-05-07 09:52 | 41.29368 | 2.07534 | 16 ft | 4 kts | 334° |
| 2026-05-07 09:52 | 41.29391 | 2.07482 | 17 ft | 12 kts | 257° |
| 2026-05-07 09:52 | 41.29354 | 2.07368 | 18 ft | 12 kts | 246° |
| 2026-05-07 09:53 | 41.29324 | 2.07273 | 17 ft | 10 kts | 245° |
| 2026-05-07 09:53 | 41.29296 | 2.07196 | 18 ft | 8 kts | 244° |
| 2026-05-07 09:53 | 41.29283 | 2.07130 | 16 ft | 7 kts | 278° |
| 2026-05-07 09:53 | 41.29313 | 2.07086 | 15 ft | 7 kts | 330° |
| 2026-05-07 09:54 | 41.29352 | 2.07060 | 15 ft | 6 kts | 333° |
| 2026-05-07 09:54 | 41.29381 | 2.07040 | 15 ft | 3 kts | 333° |
| 2026-05-07 09:54 | 41.29395 | 2.07031 | 15 ft | 2 kts | 335° |
| 2026-05-07 09:54 | 41.29420 | 2.07028 | 16 ft | 8 kts | 16° |
| 2026-05-07 09:55 | 41.29435 | 2.07051 | 17 ft | 0 kts | 65° |
| 2026-05-07 09:55 | 41.29437 | 2.07056 | 16 ft | 5 kts | 65° |
| 2026-05-07 09:55 | 41.29544 | 2.07372 | 20 ft | 72 kts | 66° |
| 2026-05-07 09:56 | 41.29835 | 2.08219 | 21 ft | 128 kts | 66° |
| 2026-05-07 09:56 | 41.30266 | 2.09475 | 106 ft | 162 kts | 69° |
| 2026-05-07 09:56 | 41.30701 | 2.10812 | 847 ft | 155 kts | 70° |
| 2026-05-07 09:56 | 41.31097 | 2.12134 | 1518 ft | 151 kts | 77° |
| 2026-05-07 09:57 | 41.30996 | 2.13525 | 1913 ft | 161 kts | 115° |
| 2026-05-07 09:57 | 41.30177 | 2.14623 | 2296 ft | 179 kts | 150° |
| 2026-05-07 09:57 | 41.28927 | 2.14956 | 2705 ft | 191 kts | 180° |
| 2026-05-07 09:57 | 41.27652 | 2.14406 | 3134 ft | 198 kts | 210° |
| 2026-05-07 09:58 | 41.26964 | 2.13599 | 3412 ft | 201 kts | 231° |
| 2026-05-07 09:58 | 41.26217 | 2.11986 | 3673 ft | 212 kts | 236° |
| 2026-05-07 09:58 | 41.25251 | 2.10400 | 3810 ft | 229 kts | 230° |
| 2026-05-07 09:58 | 41.24184 | 2.08706 | 3927 ft | 249 kts | 230° |
| 2026-05-07 09:59 | 41.23030 | 2.06865 | 4189 ft | 267 kts | 230° |
| 2026-05-07 09:59 | 41.21826 | 2.04943 | 4782 ft | 272 kts | 231° |
| 2026-05-07 09:59 | 41.20619 | 2.03014 | 5468 ft | 272 kts | 231° |
| 2026-05-07 09:59 | 41.19402 | 2.01074 | 6162 ft | 274 kts | 231° |
| 2026-05-07 10:00 | 41.15543 | 1.94937 | 8191 ft | 278 kts | 231° |
| 2026-05-07 10:00 | 41.10567 | 1.87067 | 10484 ft | 290 kts | 230° |
| 2026-05-07 10:00 | 41.04765 | 1.77890 | 11173 ft | 351 kts | 230° |
| 2026-05-07 10:00 | 40.98434 | 1.67931 | 13391 ft | 357 kts | 230° |
| 2026-05-07 10:01 | 40.91978 | 1.57782 | 15287 ft | 364 kts | 230° |
| 2026-05-07 10:01 | 40.85383 | 1.47430 | 17041 ft | 371 kts | 229° |
| 2026-05-07 10:01 | 40.78648 | 1.36932 | 18598 ft | 378 kts | 229° |
| 2026-05-07 10:01 | 40.71818 | 1.26330 | 19966 ft | 380 kts | 229° |
| 2026-05-07 10:02 | 40.64936 | 1.15677 | 21306 ft | 383 kts | 229° |
| 2026-05-07 10:02 | 40.57992 | 1.04962 | 22725 ft | 387 kts | 229° |
| 2026-05-07 10:02 | 40.50841 | 0.94264 | 24017 ft | 390 kts | 227° |
| 2026-05-07 10:02 | 40.43389 | 0.83792 | 25130 ft | 393 kts | 227° |
| 2026-05-07 10:03 | 40.35937 | 0.73186 | 26122 ft | 398 kts | 227° |
| 2026-05-07 10:03 | 40.28352 | 0.62450 | 27097 ft | 403 kts | 226° |
| 2026-05-07 10:03 | 40.20821 | 0.51802 | 28100 ft | 404 kts | 226° |
| 2026-05-07 10:03 | 40.13127 | 0.40982 | 28914 ft | 408 kts | 226° |
| 2026-05-07 10:04 | 40.05360 | 0.30122 | 29755 ft | 408 kts | 226° |
| 2026-05-07 10:04 | 39.97674 | 0.19399 | 30662 ft | 401 kts | 226° |
| 2026-05-07 10:04 | 39.90064 | 0.08794 | 31499 ft | 398 kts | 226° |
| 2026-05-07 10:04 | 39.82506 | -0.01678 | 32294 ft | 396 kts | 225° |
| 2026-05-07 10:05 | 39.74941 | -0.12146 | 32978 ft | 395 kts | 225° |
| 2026-05-07 10:05 | 39.60068 | -0.32592 | 32966 ft | 388 kts | 225° |
| 2026-05-07 10:06 | 39.45678 | -0.53296 | 33031 ft | 388 kts | 231° |
| 2026-05-07 10:06 | 39.32646 | -0.75448 | 33010 ft | 383 kts | 230° |
| 2026-05-07 10:07 | 39.19547 | -0.97574 | 32929 ft | 391 kts | 230° |
| 2026-05-07 10:07 | 39.06396 | -1.19670 | 33014 ft | 390 kts | 230° |